createdAt,value
2023-05-11T00:00:31.637Z,6.03
2023-05-11T00:01:34.127Z,6.63
2023-05-11T00:02:36.632Z,6.03
2023-05-11T00:03:39.216Z,7.70
2023-05-11T00:04:41.826Z,4.95
2023-05-11T00:05:48.120Z,7.45
2023-05-11T00:06:50.313Z,5.40
2023-05-11T00:07:52.729Z,9.95
2023-05-11T00:08:55.030Z,5.45
2023-05-11T00:09:57.332Z,6.80
2023-05-11T00:11:02.434Z,5.88
2023-05-11T00:12:05.270Z,6.10
2023-05-11T00:13:07.536Z,5.95
2023-05-11T00:14:09.813Z,7.13
2023-05-11T00:15:12.129Z,6.30
2023-05-11T00:16:15.040Z,6.68
2023-05-11T00:17:19.052Z,5.60
2023-05-11T00:18:21.690Z,5.63
2023-05-11T00:19:24.229Z,5.20
2023-05-11T00:20:26.511Z,4.50
2023-05-11T00:21:28.860Z,5.93
2023-05-11T00:22:31.117Z,6.15
2023-05-11T00:23:33.449Z,5.18
2023-05-11T00:24:35.780Z,4.70
2023-05-11T00:25:39.316Z,7.97
2023-05-11T00:26:41.584Z,6.13
2023-05-11T00:27:46.248Z,5.57
2023-05-11T00:28:48.706Z,6.78
2023-05-11T00:29:51.065Z,5.10
2023-05-11T00:30:59.608Z,5.40
2023-05-11T00:32:01.877Z,6.38
2023-05-11T00:33:04.119Z,5.72
2023-05-11T00:34:06.709Z,4.18
2023-05-11T00:35:10.269Z,5.90
2023-05-11T00:36:12.598Z,6.18
2023-05-11T00:37:14.897Z,6.65
2023-05-11T00:38:17.250Z,6.68
2023-05-11T00:39:19.605Z,6.97
2023-05-11T00:40:21.838Z,5.18
2023-05-11T00:41:24.122Z,7.53
2023-05-11T00:42:26.396Z,6.63
2023-05-11T00:43:28.619Z,5.38
2023-05-11T00:44:30.951Z,6.72
2023-05-11T00:45:33.618Z,6.55
2023-05-11T00:46:36.655Z,5.22
2023-05-11T00:47:39.075Z,4.95
2023-05-11T00:48:41.344Z,7.55
2023-05-11T00:49:44.203Z,5.50
2023-05-11T00:50:46.777Z,6.38
2023-05-11T00:51:49.448Z,6.13
2023-05-11T00:52:51.783Z,6.45
2023-05-11T00:53:54.028Z,7.20
2023-05-11T00:54:56.350Z,6.13
2023-05-11T00:55:59.251Z,7.20
2023-05-11T00:57:01.501Z,7.43
2023-05-11T00:58:05.821Z,5.38
2023-05-11T00:59:09.100Z,7.07
2023-05-11T01:00:12.207Z,6.30
2023-05-11T01:01:18.030Z,8.60
2023-05-11T01:02:21.142Z,6.25
2023-05-11T01:03:23.873Z,7.05
2023-05-11T01:04:26.508Z,6.18
2023-05-11T01:05:44.780Z,6.20
2023-05-11T01:07:26.110Z,7.05
2023-05-11T01:08:48.608Z,5.50
2023-05-11T01:10:04.562Z,6.95
2023-05-11T01:11:42.332Z,8.02
2023-05-11T01:12:53.795Z,7.97
2023-05-11T01:14:00.696Z,7.32
2023-05-11T01:15:16.284Z,9.27
2023-05-11T01:16:22.182Z,7.03
2023-05-11T01:17:38.517Z,6.47
2023-05-11T01:19:14.687Z,7.35
2023-05-11T01:21:20.608Z,5.20
2023-05-11T01:22:39.329Z,6.90
2023-05-11T01:24:04.125Z,6.93
2023-05-11T01:25:12.264Z,7.38
2023-05-11T01:26:30.160Z,7.80
2023-05-11T01:27:48.990Z,8.00
2023-05-11T01:29:30.313Z,7.93
2023-05-11T01:30:38.861Z,7.50
2023-05-11T01:31:43.226Z,10.63
2023-05-11T01:32:46.633Z,7.97
2023-05-11T01:33:57.376Z,8.77
2023-05-11T01:36:10.594Z,7.45
2023-05-11T01:37:14.751Z,7.88
2023-05-11T01:38:19.798Z,9.07
2023-05-11T01:39:38.814Z,8.38
2023-05-11T01:40:42.123Z,9.82
2023-05-11T01:41:46.184Z,8.20
2023-05-11T01:42:50.483Z,7.88
2023-05-11T01:43:58.528Z,11.98
2023-05-11T01:45:01.152Z,6.85
2023-05-11T01:46:04.196Z,9.32
2023-05-11T01:47:07.241Z,9.57
2023-05-11T01:48:17.414Z,9.38
2023-05-11T01:49:20.637Z,8.57
2023-05-11T01:50:24.878Z,10.80
2023-05-11T01:51:30.716Z,7.35
2023-05-11T01:52:33.791Z,7.05
2023-05-11T01:53:38.395Z,7.32
2023-05-11T01:54:42.591Z,8.00
2023-05-11T01:56:49.817Z,6.88
2023-05-11T01:57:53.734Z,8.13
2023-05-11T01:58:57.020Z,9.55
2023-05-11T02:00:00.123Z,8.48
2023-05-11T02:01:03.421Z,6.57
2023-05-11T02:02:06.932Z,9.55
2023-05-11T02:03:09.551Z,10.18
2023-05-11T02:04:13.499Z,11.13
2023-05-11T02:05:21.495Z,6.32
2023-05-11T02:06:25.102Z,8.90
2023-05-11T02:07:30.177Z,9.38
2023-05-11T02:08:32.922Z,7.10
2023-05-11T02:09:36.283Z,7.82
2023-05-11T02:10:40.241Z,5.40
2023-05-11T02:11:44.085Z,7.68
2023-05-11T02:12:48.303Z,6.93
2023-05-11T02:13:52.323Z,6.38
2023-05-11T02:14:55.112Z,7.93
2023-05-11T02:15:58.835Z,6.38
2023-05-11T02:17:02.908Z,5.45
2023-05-11T02:19:08.138Z,8.13
2023-05-11T02:20:11.535Z,6.40
2023-05-11T02:21:15.231Z,9.20
2023-05-11T02:22:18.288Z,7.75
2023-05-11T02:23:22.132Z,9.27
2023-05-11T02:24:25.172Z,8.55
2023-05-11T02:25:28.867Z,8.20
2023-05-11T02:26:31.221Z,6.75
2023-05-11T02:27:34.254Z,10.02
2023-05-11T02:28:36.816Z,8.00
2023-05-11T02:29:39.108Z,8.05
2023-05-11T02:30:46.954Z,7.72
2023-05-11T02:31:55.140Z,7.57
2023-05-11T02:32:59.302Z,7.50
2023-05-11T02:35:12.118Z,6.22
2023-05-11T02:36:20.846Z,7.88
2023-05-11T02:37:25.039Z,9.80
2023-05-11T02:38:32.983Z,8.88
2023-05-11T02:39:37.114Z,9.85
2023-05-11T02:40:51.798Z,7.93
2023-05-11T02:41:57.386Z,6.43
2023-05-11T02:43:09.501Z,8.20
2023-05-11T02:44:16.236Z,6.47
2023-05-11T02:45:19.708Z,6.97
2023-05-11T02:46:25.479Z,6.88
2023-05-11T02:47:30.456Z,8.73
2023-05-11T02:48:39.133Z,7.50
2023-05-11T02:49:43.239Z,11.32
2023-05-11T02:50:47.036Z,7.85
2023-05-11T02:51:50.992Z,8.43
2023-05-11T02:52:55.837Z,6.20
2023-05-11T02:53:59.578Z,10.07
2023-05-11T02:55:06.292Z,7.07
2023-05-11T02:56:09.096Z,7.68
2023-05-11T02:57:21.142Z,6.88
2023-05-11T02:58:24.123Z,8.45
2023-05-11T02:59:34.788Z,7.95
2023-05-11T03:00:39.247Z,8.50
2023-05-11T03:01:42.180Z,9.15
2023-05-11T03:02:46.042Z,7.05
2023-05-11T03:03:48.851Z,7.35
2023-05-11T03:04:51.383Z,6.95
2023-05-11T03:05:53.704Z,6.28
2023-05-11T03:06:56.270Z,9.07
2023-05-11T03:07:59.506Z,8.02
2023-05-11T03:09:02.250Z,8.52
2023-05-11T03:10:08.523Z,6.22
2023-05-11T03:11:16.241Z,8.60
2023-05-11T03:12:21.431Z,7.30
2023-05-11T03:13:25.565Z,10.98
2023-05-11T03:14:33.302Z,6.63
2023-05-11T03:15:37.221Z,10.77
2023-05-11T03:16:40.559Z,6.78
2023-05-11T03:17:43.410Z,9.32
2023-05-11T03:18:50.042Z,7.30
2023-05-11T03:19:53.609Z,7.75
2023-05-11T03:20:56.366Z,10.27
2023-05-11T03:22:00.196Z,10.48
2023-05-11T03:23:02.880Z,9.02
2023-05-11T03:24:07.010Z,8.68
2023-05-11T03:25:10.267Z,8.10
2023-05-11T03:26:13.398Z,9.85
2023-05-11T03:27:16.153Z,8.95
2023-05-11T03:28:20.149Z,10.15
2023-05-11T03:29:32.088Z,9.20
2023-05-11T03:30:34.922Z,8.30
2023-05-11T03:31:37.323Z,8.52
2023-05-11T03:32:39.789Z,6.63
2023-05-11T03:33:42.388Z,6.88
2023-05-11T03:34:44.953Z,6.70
2023-05-11T03:35:51.431Z,7.07
2023-05-11T03:36:57.270Z,9.15
2023-05-11T03:39:03.773Z,8.85
2023-05-11T03:40:09.450Z,5.53
2023-05-11T03:41:21.721Z,7.10
2023-05-11T03:42:28.142Z,9.13
2023-05-11T03:43:32.535Z,5.85
2023-05-11T03:44:35.419Z,7.40
2023-05-11T03:45:38.399Z,8.18
2023-05-11T03:46:44.187Z,7.72
2023-05-11T03:47:49.413Z,7.50
2023-05-11T03:48:52.344Z,6.65
2023-05-11T03:49:58.551Z,8.63
2023-05-11T03:51:00.970Z,7.10
2023-05-11T03:52:03.642Z,9.38
2023-05-11T03:53:06.812Z,9.20
2023-05-11T03:54:09.376Z,6.40
2023-05-11T03:55:11.985Z,6.15
2023-05-11T03:56:14.299Z,7.13
2023-05-11T03:57:16.848Z,8.93
2023-05-11T03:58:19.438Z,7.57
2023-05-11T03:59:22.149Z,6.90
2023-05-11T04:00:24.581Z,6.78
2023-05-11T04:01:28.822Z,7.63
2023-05-11T04:02:31.473Z,6.45
2023-05-11T04:03:34.064Z,7.20
2023-05-11T04:04:36.406Z,6.65
2023-05-11T04:05:38.575Z,6.60
2023-05-11T04:06:43.854Z,8.23
2023-05-11T04:07:50.881Z,5.40
2023-05-11T04:08:53.876Z,6.72
2023-05-11T04:09:56.455Z,4.20
2023-05-11T04:10:58.690Z,6.03
2023-05-11T04:12:00.943Z,6.47
2023-05-11T04:13:04.277Z,8.60
2023-05-11T04:14:06.518Z,9.70
2023-05-11T04:15:09.105Z,7.70
2023-05-11T04:16:11.587Z,5.82
2023-05-11T04:17:14.010Z,6.78
2023-05-11T04:18:16.507Z,9.15
2023-05-11T04:19:19.219Z,8.35
2023-05-11T04:20:21.518Z,9.57
2023-05-11T04:21:23.812Z,6.28
2023-05-11T04:22:26.140Z,10.13
2023-05-11T04:23:28.470Z,7.93
2023-05-11T04:24:30.855Z,8.80
2023-05-11T04:25:33.051Z,5.25
2023-05-11T04:26:35.439Z,5.68
2023-05-11T04:27:38.575Z,6.90
2023-05-11T04:28:40.994Z,7.00
2023-05-11T04:29:43.301Z,8.98
2023-05-11T04:30:46.087Z,7.03
2023-05-11T04:31:48.680Z,8.65
2023-05-11T04:32:51.101Z,6.65
2023-05-11T04:33:53.404Z,9.02
2023-05-11T04:34:56.376Z,8.88
2023-05-11T04:36:00.732Z,6.13
2023-05-11T04:37:07.425Z,8.82
2023-05-11T04:38:11.541Z,10.57
2023-05-11T04:39:13.772Z,13.77
2023-05-11T04:40:16.362Z,11.57
2023-05-11T04:41:20.013Z,11.18
2023-05-11T04:42:22.343Z,8.50
2023-05-11T04:43:27.211Z,9.80
2023-05-11T04:44:29.580Z,6.43
2023-05-11T04:45:31.964Z,7.82
2023-05-11T04:46:34.358Z,6.72
2023-05-11T04:47:36.943Z,6.85
2023-05-11T04:48:40.244Z,6.28
2023-05-11T04:49:44.329Z,8.00
2023-05-11T04:50:46.976Z,9.75
2023-05-11T04:51:51.078Z,9.07
2023-05-11T04:52:54.050Z,8.80
2023-05-11T04:53:56.438Z,6.60
2023-05-11T04:54:59.208Z,5.63
2023-05-11T04:56:01.988Z,9.43
2023-05-11T04:57:04.756Z,6.05
2023-05-11T04:58:07.284Z,7.45
2023-05-11T04:59:10.278Z,9.23
2023-05-11T05:00:12.761Z,5.80
2023-05-11T05:01:15.100Z,8.00
2023-05-11T05:02:17.725Z,6.75
2023-05-11T05:03:20.664Z,8.05
2023-05-11T05:04:24.452Z,5.15
2023-05-11T05:05:26.724Z,5.43
2023-05-11T05:06:30.226Z,6.43
2023-05-11T05:07:32.507Z,7.38
2023-05-11T05:08:35.011Z,5.32
2023-05-11T05:09:37.451Z,6.60
2023-05-11T05:10:40.060Z,5.80
2023-05-11T05:11:42.567Z,5.72
2023-05-11T05:12:44.888Z,5.80
2023-05-11T05:13:47.139Z,5.55
2023-05-11T05:14:49.483Z,7.15
2023-05-11T05:15:51.911Z,7.35
2023-05-11T05:16:54.777Z,6.70
2023-05-11T05:17:57.509Z,6.28
2023-05-11T05:19:00.069Z,5.22
2023-05-11T05:20:04.802Z,5.85
2023-05-11T05:21:07.252Z,7.28
2023-05-11T05:22:09.617Z,5.88
2023-05-11T05:23:12.031Z,4.90
2023-05-11T05:24:14.444Z,5.57
2023-05-11T05:25:17.139Z,6.88
2023-05-11T05:26:19.866Z,8.63
2023-05-11T05:27:22.741Z,7.70
2023-05-11T05:28:25.142Z,6.32
2023-05-11T05:29:27.766Z,7.97
2023-05-11T05:30:30.607Z,6.32
2023-05-11T05:31:33.300Z,12.38
2023-05-11T05:32:37.065Z,12.35
2023-05-11T05:33:39.425Z,8.35
2023-05-11T05:34:41.828Z,8.07
2023-05-11T05:35:46.761Z,6.97
2023-05-11T05:36:50.717Z,7.93
2023-05-11T05:37:53.103Z,6.00
2023-05-11T05:38:55.866Z,4.65
2023-05-11T05:39:58.596Z,5.43
2023-05-11T05:41:01.524Z,8.43
2023-05-11T05:42:07.697Z,5.43
2023-05-11T05:43:11.478Z,8.13
2023-05-11T05:44:13.750Z,5.97
2023-05-11T05:45:16.085Z,6.03
2023-05-11T05:46:18.917Z,7.60
2023-05-11T05:47:21.817Z,6.28
2023-05-11T05:48:24.214Z,5.38
2023-05-11T05:49:26.548Z,6.60
2023-05-11T05:50:29.108Z,6.72
2023-05-11T05:51:32.988Z,9.38
2023-05-11T05:52:35.290Z,8.13
2023-05-11T05:53:38.337Z,6.00
2023-05-11T05:54:41.494Z,5.45
2023-05-11T05:55:43.943Z,8.13
2023-05-11T05:56:46.523Z,5.60
2023-05-11T05:57:48.876Z,7.07
2023-05-11T05:58:51.523Z,4.85
2023-05-11T05:59:54.388Z,7.55
2023-05-11T06:00:56.897Z,5.80
2023-05-11T06:01:59.313Z,4.43
2023-05-11T06:03:01.968Z,6.57
2023-05-11T06:04:04.853Z,6.38
2023-05-11T06:05:08.243Z,6.53
2023-05-11T06:06:10.735Z,7.65
2023-05-11T06:07:14.372Z,6.65
2023-05-11T06:08:16.631Z,7.55
2023-05-11T06:09:19.484Z,5.07
2023-05-11T06:10:21.962Z,5.32
2023-05-11T06:11:24.261Z,5.72
2023-05-11T06:12:27.284Z,9.07
2023-05-11T06:13:31.220Z,6.25
2023-05-11T06:14:35.329Z,5.57
2023-05-11T06:15:39.919Z,5.53
2023-05-11T06:16:49.528Z,6.07
2023-05-11T06:17:51.810Z,5.03
2023-05-11T06:18:54.525Z,5.30
2023-05-11T06:19:57.420Z,7.22
2023-05-11T06:21:03.349Z,5.05
2023-05-11T06:22:08.031Z,4.63
2023-05-11T06:23:11.314Z,5.72
2023-05-11T06:24:16.064Z,5.80
2023-05-11T06:25:20.229Z,5.50
2023-05-11T06:26:25.375Z,7.20
2023-05-11T06:27:28.888Z,7.85
2023-05-11T06:28:33.938Z,7.25
2023-05-11T06:29:41.058Z,4.47
2023-05-11T06:30:43.385Z,6.05
2023-05-11T06:31:49.585Z,4.80
2023-05-11T06:32:52.255Z,6.50
2023-05-11T06:33:56.316Z,7.93
2023-05-11T06:35:02.396Z,10.07
2023-05-11T06:36:06.470Z,4.82
2023-05-11T06:37:09.974Z,7.38
2023-05-11T06:38:12.297Z,8.52
2023-05-11T06:39:15.078Z,5.97
2023-05-11T06:40:17.791Z,6.93
2023-05-11T06:41:20.287Z,7.82
2023-05-11T06:42:26.029Z,5.65
2023-05-11T06:43:39.474Z,7.13
2023-05-11T06:44:53.554Z,6.72
2023-05-11T06:45:57.994Z,5.97
2023-05-11T06:47:01.292Z,5.43
2023-05-11T06:48:04.205Z,5.80
2023-05-11T06:49:08.838Z,6.85
2023-05-11T06:50:11.468Z,4.68
2023-05-11T06:51:14.319Z,6.47
2023-05-11T06:52:18.367Z,7.00
2023-05-11T06:53:21.329Z,5.47
2023-05-11T06:54:23.660Z,6.72
2023-05-11T06:55:27.933Z,6.40
2023-05-11T06:56:32.051Z,5.88
2023-05-11T06:57:34.413Z,5.50
2023-05-11T06:58:36.920Z,6.97
2023-05-11T06:59:39.182Z,6.25
2023-05-11T07:00:41.648Z,5.95
2023-05-11T07:01:44.400Z,6.20
2023-05-11T07:02:47.053Z,5.15
2023-05-11T07:03:50.457Z,5.78
2023-05-11T07:04:54.356Z,6.80
2023-05-11T07:05:57.010Z,5.88
2023-05-11T07:06:59.442Z,6.85
2023-05-11T07:08:01.755Z,6.30
2023-05-11T07:09:04.253Z,7.80
2023-05-11T07:10:07.372Z,5.93
2023-05-11T07:11:09.832Z,5.32
2023-05-11T07:12:12.204Z,5.65
2023-05-11T07:13:14.630Z,7.40
2023-05-11T07:14:17.975Z,5.93
2023-05-11T07:15:21.770Z,5.88
2023-05-11T07:16:24.021Z,5.65
2023-05-11T07:17:26.359Z,5.40
2023-05-11T07:18:28.824Z,5.85
2023-05-11T07:19:31.413Z,4.07
2023-05-11T07:20:36.678Z,5.07
2023-05-11T07:21:39.002Z,4.72
2023-05-11T07:22:41.357Z,5.22
2023-05-11T07:23:44.693Z,4.35
2023-05-11T07:24:46.971Z,7.38
2023-05-11T07:25:52.411Z,6.72
2023-05-11T07:26:56.018Z,6.43
2023-05-11T07:27:58.701Z,8.57
2023-05-11T07:29:01.156Z,5.75
2023-05-11T07:30:05.452Z,5.72
2023-05-11T07:31:08.373Z,4.05
2023-05-11T07:32:11.113Z,6.90
2023-05-11T07:33:13.515Z,5.13
2023-05-11T07:34:16.411Z,4.13
2023-05-11T07:35:18.721Z,3.72
2023-05-11T07:36:21.578Z,6.22
2023-05-11T07:37:23.971Z,5.70
2023-05-11T07:38:26.398Z,4.65
2023-05-11T07:39:29.180Z,5.97
2023-05-11T07:40:35.446Z,4.85
2023-05-11T07:41:38.516Z,4.95
2023-05-11T07:42:40.953Z,5.07
2023-05-11T07:43:43.996Z,3.97
2023-05-11T07:44:46.380Z,5.95
2023-05-11T07:45:48.720Z,7.28
2023-05-11T07:46:51.129Z,4.93
2023-05-11T07:47:53.657Z,6.72
2023-05-11T07:49:11.196Z,5.60
2023-05-11T07:50:18.942Z,3.30
2023-05-11T07:51:21.651Z,4.57
2023-05-11T07:52:26.992Z,4.10
2023-05-11T07:53:29.313Z,4.68
2023-05-11T07:54:31.594Z,3.67
2023-05-11T07:55:34.040Z,5.65
2023-05-11T07:56:36.492Z,4.15
2023-05-11T07:57:41.812Z,3.40
2023-05-11T07:58:46.045Z,11.95
2023-05-11T07:59:48.413Z,5.82
2023-05-11T08:00:51.248Z,4.15
2023-05-11T08:01:54.075Z,4.65
2023-05-11T08:03:00.056Z,7.07
2023-05-11T08:04:02.694Z,6.40
2023-05-11T08:05:05.479Z,7.05
2023-05-11T08:06:08.895Z,4.30
2023-05-11T08:07:11.231Z,7.65
2023-05-11T08:08:13.598Z,3.67
2023-05-11T08:09:16.116Z,6.30
2023-05-11T08:10:18.532Z,3.38
2023-05-11T08:11:21.049Z,4.35
2023-05-11T08:12:24.533Z,5.43
2023-05-11T08:13:26.831Z,5.80
2023-05-11T08:14:29.098Z,3.75
2023-05-11T08:15:31.695Z,3.10
2023-05-11T08:16:35.348Z,3.40
2023-05-11T08:17:37.927Z,4.00
2023-05-11T08:18:40.241Z,5.97
2023-05-11T08:19:42.700Z,3.53
2023-05-11T08:20:45.074Z,3.15
2023-05-11T08:21:47.403Z,3.55
2023-05-11T08:22:50.156Z,4.25
2023-05-11T08:23:53.955Z,3.90
2023-05-11T08:24:57.932Z,3.95
2023-05-11T08:26:01.493Z,4.55
2023-05-11T08:27:04.147Z,4.10
2023-05-11T08:28:06.518Z,3.22
2023-05-11T08:29:09.505Z,5.13
2023-05-11T08:30:15.369Z,3.10
2023-05-11T08:31:24.013Z,6.55
2023-05-11T08:32:38.269Z,4.55
2023-05-11T08:33:48.965Z,3.60
2023-05-11T08:34:51.819Z,4.90
2023-05-11T08:35:54.577Z,3.30
2023-05-11T08:36:57.300Z,6.32
2023-05-11T08:38:14.191Z,3.42
2023-05-11T08:39:43.681Z,4.07
2023-05-11T08:40:49.378Z,9.75
2023-05-11T08:41:51.943Z,14.35
2023-05-11T08:42:56.201Z,8.68
2023-05-11T08:44:00.302Z,7.60
2023-05-11T08:45:07.249Z,3.55
2023-05-11T08:46:11.787Z,5.20
2023-05-11T08:48:21.236Z,6.57
2023-05-11T08:49:23.983Z,3.15
2023-05-11T08:50:26.780Z,3.42
2023-05-11T08:51:29.332Z,3.03
2023-05-11T08:52:31.831Z,4.78
2023-05-11T08:53:34.194Z,4.65
2023-05-11T08:54:36.453Z,4.95
2023-05-11T08:55:40.747Z,6.07
2023-05-11T08:56:43.646Z,3.65
2023-05-11T08:57:52.659Z,2.50
2023-05-11T08:58:57.645Z,3.63
2023-05-11T09:00:02.096Z,2.75
2023-05-11T09:01:06.052Z,2.72
2023-05-11T09:02:11.342Z,4.50
2023-05-11T09:03:14.057Z,3.45
2023-05-11T09:04:17.754Z,3.80
2023-05-11T09:05:33.268Z,3.67
2023-05-11T09:06:37.051Z,4.35
2023-05-11T09:08:46.069Z,3.65
2023-05-11T09:09:48.761Z,2.65
2023-05-11T09:10:51.368Z,3.47
2023-05-11T09:11:54.444Z,3.97
2023-05-11T09:12:57.192Z,3.63
2023-05-11T09:13:59.604Z,5.03
2023-05-11T09:15:02.606Z,5.28
2023-05-11T09:16:11.316Z,3.67
2023-05-11T09:17:25.946Z,3.15
2023-05-11T09:18:28.418Z,6.05
2023-05-11T09:19:31.284Z,2.80
2023-05-11T09:20:34.351Z,5.97
2023-05-11T09:21:38.752Z,5.97
2023-05-11T09:22:45.237Z,2.83
2023-05-11T09:23:51.114Z,4.70
2023-05-11T09:24:54.200Z,5.05
2023-05-11T09:25:57.094Z,2.47
2023-05-11T09:27:09.722Z,4.43
2023-05-11T09:28:25.579Z,2.58
2023-05-11T09:29:30.596Z,3.80
2023-05-11T09:30:34.124Z,5.47
2023-05-11T09:31:47.508Z,4.30
2023-05-11T09:32:51.403Z,3.50
2023-05-11T09:34:08.850Z,4.70
2023-05-11T09:35:21.481Z,2.35
2023-05-11T09:36:24.770Z,1.98
2023-05-11T09:37:26.974Z,5.35
2023-05-11T09:38:29.466Z,3.22
2023-05-11T09:39:47.310Z,3.35
2023-05-11T09:41:03.386Z,2.80
2023-05-11T09:42:23.982Z,5.43
2023-05-11T09:43:28.577Z,2.78
2023-05-11T09:44:32.386Z,2.53
2023-05-11T09:45:41.909Z,8.07
2023-05-11T09:46:45.985Z,5.07
2023-05-11T09:47:49.246Z,11.73
2023-05-11T09:48:59.941Z,3.90
2023-05-11T09:50:16.827Z,3.72
2023-05-11T09:51:29.993Z,4.18
2023-05-11T09:52:32.504Z,3.78
2023-05-11T09:53:36.432Z,3.60
2023-05-11T09:54:44.033Z,7.22
2023-05-11T09:55:54.124Z,4.40
2023-05-11T09:58:03.721Z,4.10
2023-05-11T09:59:06.046Z,3.08
2023-05-11T10:00:14.674Z,2.22
2023-05-11T10:01:19.298Z,2.83
2023-05-11T10:02:28.441Z,2.30
2023-05-11T10:03:31.068Z,10.90
2023-05-11T10:04:33.860Z,2.92
2023-05-11T10:05:36.944Z,4.03
2023-05-11T10:06:53.731Z,2.67
2023-05-11T10:08:00.956Z,4.32
2023-05-11T10:09:09.788Z,2.33
2023-05-11T10:10:12.923Z,2.85
2023-05-11T10:11:15.601Z,3.63
2023-05-11T10:12:19.122Z,2.35
2023-05-11T10:13:21.642Z,3.78
2023-05-11T10:14:25.194Z,3.13
2023-05-11T10:15:28.862Z,4.03
2023-05-11T10:16:31.878Z,3.55
2023-05-11T10:17:35.464Z,5.82
2023-05-11T10:18:37.882Z,7.70
2023-05-11T10:19:40.332Z,8.00
2023-05-11T10:20:43.072Z,6.72
2023-05-11T10:21:46.020Z,2.28
2023-05-11T10:22:48.481Z,3.95
2023-05-11T10:24:08.145Z,12.52
2023-05-11T10:25:10.818Z,3.42
2023-05-11T10:26:13.415Z,3.20
2023-05-11T10:27:16.108Z,2.55
2023-05-11T10:28:18.570Z,3.85
2023-05-11T10:29:21.732Z,2.03
2023-05-11T10:30:24.577Z,3.75
2023-05-11T10:31:27.413Z,2.60
2023-05-11T10:32:30.135Z,2.65
2023-05-11T10:33:33.293Z,3.08
2023-05-11T10:34:36.966Z,2.92
2023-05-11T10:35:39.404Z,6.07
2023-05-11T10:36:41.735Z,4.47
2023-05-11T10:37:44.090Z,3.50
2023-05-11T10:38:46.446Z,2.97
2023-05-11T10:39:50.676Z,1.85
2023-05-11T10:40:55.014Z,2.38
2023-05-11T10:42:08.686Z,3.20
2023-05-11T10:43:36.037Z,2.60
2023-05-11T10:45:04.786Z,1.92
2023-05-11T10:46:35.750Z,3.55
2023-05-11T10:48:18.810Z,2.60
2023-05-11T10:49:37.133Z,2.45
2023-05-11T10:50:58.149Z,2.05
2023-05-11T10:52:28.220Z,4.35
2023-05-11T10:53:46.851Z,3.78
2023-05-11T10:55:02.549Z,2.00
2023-05-11T10:56:36.191Z,2.10
2023-05-11T10:58:00.340Z,3.38
2023-05-11T10:59:14.772Z,2.75
2023-05-11T11:00:31.664Z,5.38
2023-05-11T11:01:40.906Z,2.72
2023-05-11T11:02:44.835Z,4.32
2023-05-11T11:05:05.906Z,4.97
2023-05-11T11:06:22.930Z,2.50
2023-05-11T11:08:27.345Z,2.05
2023-05-11T11:09:50.781Z,2.72
2023-05-11T11:10:53.261Z,2.22
2023-05-11T11:12:09.857Z,3.65
2023-05-11T11:13:17.108Z,4.65
2023-05-11T11:14:19.418Z,3.28
2023-05-11T11:15:21.743Z,2.53
2023-05-11T11:16:26.241Z,5.00
2023-05-11T11:17:33.096Z,3.58
2023-05-11T11:18:35.694Z,3.28
2023-05-11T11:19:38.513Z,3.97
2023-05-11T11:20:51.450Z,2.45
2023-05-11T11:21:53.721Z,3.90
2023-05-11T11:22:55.925Z,3.35
2023-05-11T11:24:01.526Z,2.10
2023-05-11T11:25:06.117Z,1.75
2023-05-11T11:26:10.211Z,1.95
2023-05-11T11:27:12.915Z,3.03
2023-05-11T11:28:15.159Z,3.40
2023-05-11T11:29:17.631Z,2.88
2023-05-11T11:30:30.960Z,4.25
2023-05-11T11:31:34.454Z,5.25
2023-05-11T11:32:37.005Z,2.40
2023-05-11T11:33:39.604Z,2.53
2023-05-11T11:34:42.070Z,5.68
2023-05-11T11:35:47.460Z,3.15
2023-05-11T11:36:55.909Z,2.67
2023-05-11T11:38:03.231Z,2.63
2023-05-11T11:39:05.759Z,1.77
2023-05-11T11:40:14.539Z,2.03
2023-05-11T11:41:29.590Z,2.47
2023-05-11T11:42:32.641Z,3.92
2023-05-11T11:43:54.345Z,4.03
2023-05-11T11:45:27.027Z,2.40
2023-05-11T11:46:30.096Z,2.05
2023-05-11T11:47:32.829Z,4.00
2023-05-11T11:48:36.982Z,2.95
2023-05-11T11:49:41.110Z,2.60
2023-05-11T11:50:45.024Z,8.98
2023-05-11T11:51:47.458Z,2.75
2023-05-11T11:52:50.080Z,3.15
2023-05-11T11:53:55.428Z,4.07
2023-05-11T11:55:02.245Z,3.42
2023-05-11T11:56:06.310Z,3.25
2023-05-11T11:57:30.463Z,2.05
2023-05-11T11:58:42.748Z,3.53
2023-05-11T11:59:47.992Z,2.83
2023-05-11T12:00:50.415Z,3.00
2023-05-11T12:01:53.131Z,3.30
2023-05-11T12:02:56.273Z,3.05
2023-05-11T12:04:04.457Z,4.65
2023-05-11T12:05:14.396Z,4.38
2023-05-11T12:07:21.496Z,5.25
2023-05-11T12:09:26.967Z,2.28
2023-05-11T12:10:29.713Z,5.13
2023-05-11T12:11:33.094Z,2.90
2023-05-11T12:12:35.716Z,4.00
2023-05-11T12:13:38.787Z,3.72
2023-05-11T12:14:42.228Z,2.55
2023-05-11T12:15:44.614Z,4.57
2023-05-11T12:17:03.614Z,3.70
2023-05-11T12:18:06.117Z,5.35
2023-05-11T12:19:08.443Z,2.50
2023-05-11T12:20:15.020Z,2.30
2023-05-11T12:21:21.511Z,3.58
2023-05-11T12:22:25.237Z,2.20
2023-05-11T12:23:27.702Z,5.15
2023-05-11T12:24:30.180Z,4.45
2023-05-11T12:25:32.445Z,5.13
2023-05-11T12:26:35.942Z,4.03
2023-05-11T12:28:02.475Z,3.05
2023-05-11T12:29:10.028Z,2.72
2023-05-11T12:30:20.736Z,3.47
2023-05-11T12:31:23.151Z,3.70
2023-05-11T12:32:30.056Z,2.28
2023-05-11T12:33:32.393Z,5.35
2023-05-11T12:34:34.641Z,2.60
2023-05-11T12:35:39.158Z,3.28
2023-05-11T12:36:41.509Z,5.63
2023-05-11T12:37:44.268Z,3.53
2023-05-11T12:38:47.801Z,4.25
2023-05-11T12:39:55.004Z,6.10
2023-05-11T12:40:57.315Z,2.80
2023-05-11T12:41:59.638Z,4.95
2023-05-11T12:43:01.981Z,4.72
2023-05-11T12:44:04.357Z,1.50
2023-05-11T12:45:07.352Z,1.83
2023-05-11T12:46:09.830Z,3.55
2023-05-11T12:47:12.371Z,5.47
2023-05-11T12:48:15.439Z,2.22
2023-05-11T12:49:25.357Z,2.00
2023-05-11T12:50:28.826Z,2.85
2023-05-11T12:51:50.146Z,7.75
2023-05-11T12:52:53.069Z,3.55
2023-05-11T12:53:55.520Z,1.98
2023-05-11T12:55:01.257Z,5.00
2023-05-11T12:56:04.898Z,2.90
2023-05-11T12:57:08.791Z,4.60
2023-05-11T12:58:16.356Z,2.60
2023-05-11T12:59:30.810Z,2.00
2023-05-11T13:00:33.148Z,2.95
2023-05-11T13:01:37.031Z,4.78
2023-05-11T13:02:50.328Z,3.42
2023-05-11T13:03:53.677Z,1.60
2023-05-11T13:04:56.129Z,1.60
2023-05-11T13:06:11.852Z,2.10
2023-05-11T13:07:24.874Z,2.25
2023-05-11T13:08:27.087Z,4.95
2023-05-11T13:09:29.528Z,2.35
2023-05-11T13:10:32.515Z,2.03
2023-05-11T13:11:34.873Z,1.80
2023-05-11T13:12:48.167Z,2.65
2023-05-11T13:13:54.975Z,2.75
2023-05-11T13:15:12.798Z,2.72
2023-05-11T13:16:29.358Z,2.38
2023-05-11T13:17:37.232Z,4.40
2023-05-11T13:18:39.705Z,5.50
2023-05-11T13:19:41.980Z,2.97
2023-05-11T13:20:45.192Z,2.58
2023-05-11T13:21:47.447Z,3.40
2023-05-11T13:22:51.043Z,6.82
2023-05-11T13:23:54.676Z,3.60
2023-05-11T13:25:03.389Z,3.40
2023-05-11T13:26:05.778Z,2.08
2023-05-11T13:27:08.109Z,2.95
2023-05-11T13:28:10.791Z,2.20
2023-05-11T13:29:13.727Z,4.72
2023-05-11T13:30:16.239Z,2.45
2023-05-11T13:31:21.766Z,2.10
2023-05-11T13:32:24.936Z,3.70
2023-05-11T13:33:27.304Z,2.42
2023-05-11T13:34:29.647Z,3.17
2023-05-11T13:35:31.961Z,3.45
2023-05-11T13:36:34.495Z,5.57
2023-05-11T13:37:36.971Z,4.13
2023-05-11T13:38:39.183Z,2.20
2023-05-11T13:39:41.425Z,2.42
2023-05-11T13:40:43.752Z,2.58
2023-05-11T13:41:46.511Z,5.47
2023-05-11T13:42:48.786Z,4.13
2023-05-11T13:43:51.184Z,3.95
2023-05-11T13:44:53.438Z,2.80
2023-05-11T13:45:55.893Z,2.38
2023-05-11T13:46:58.336Z,3.25
2023-05-11T13:48:00.979Z,3.80
2023-05-11T13:49:04.221Z,5.85
2023-05-11T13:50:07.337Z,3.83
2023-05-11T13:51:09.759Z,6.05
2023-05-11T13:52:12.117Z,2.75
2023-05-11T13:53:14.476Z,4.32
2023-05-11T13:54:16.702Z,4.95
2023-05-11T13:55:19.731Z,4.78
2023-05-11T13:56:22.499Z,1.90
2023-05-11T13:57:24.788Z,3.88
2023-05-11T13:58:27.145Z,2.63
2023-05-11T13:59:29.481Z,2.88
2023-05-11T14:00:32.048Z,5.30
2023-05-11T14:01:34.392Z,4.25
2023-05-11T14:02:36.733Z,2.33
2023-05-11T14:03:40.149Z,2.38
2023-05-11T14:04:42.587Z,2.00
2023-05-11T14:05:44.934Z,4.05
2023-05-11T14:06:47.518Z,2.35
2023-05-11T14:07:49.917Z,5.40
2023-05-11T14:08:52.849Z,3.28
2023-05-11T14:09:55.115Z,6.53
2023-05-11T14:10:57.358Z,3.97
2023-05-11T14:12:00.388Z,4.30
2023-05-11T14:13:02.599Z,2.45
2023-05-11T14:14:05.072Z,3.28
2023-05-11T14:15:10.038Z,5.30
2023-05-11T14:16:12.387Z,5.07
2023-05-11T14:17:15.082Z,5.00
2023-05-11T14:18:17.495Z,3.17
2023-05-11T14:19:19.931Z,2.38
2023-05-11T14:20:22.390Z,4.28
2023-05-11T14:21:24.793Z,1.70
2023-05-11T14:22:28.696Z,3.47
2023-05-11T14:23:30.992Z,3.15
2023-05-11T14:24:33.711Z,3.58
2023-05-11T14:25:36.643Z,3.72
2023-05-11T14:26:39.044Z,2.67
2023-05-11T14:27:41.502Z,2.15
2023-05-11T14:28:44.155Z,2.55
2023-05-11T14:29:46.911Z,3.35
2023-05-11T14:30:49.514Z,3.30
2023-05-11T14:31:51.841Z,4.63
2023-05-11T14:32:55.108Z,2.92
2023-05-11T14:33:57.407Z,3.25
2023-05-11T14:34:59.714Z,2.60
2023-05-11T14:36:02.515Z,4.78
2023-05-11T14:37:05.822Z,2.15
2023-05-11T14:38:08.140Z,3.28